Time;durP1;ratioP1;P1;durP2;ratioP2;P2;SDS_P1;SDS_P2;PMS_P1;PMS_P2;Temp;Humidity;BMP_temperature;BMP_pressure;BME280_temperature;BME280_humidity;BME280_pressure;Samples;Min_cycle;Max_cycle;Signal;HPM_P1;HPM_P2
2021/07/15 00:00:48;;;;;;;;;;;;;;;23.79;67.17;100671.09;5053529;28;1903;-42
2021/07/15 00:03:18;;;;;;;;;;;;;;;23.79;66.44;100678.34;5055976;28;1855;-41
2021/07/15 00:05:45;;;;;;;;;;;;;;;23.61;67.05;100689.28;5055771;28;1914;-42
2021/07/15 00:08:12;;;;;;;;;;;;;;;23.37;67.75;100682.00;5055752;28;1541;-41
2021/07/15 00:10:40;;;;;;;;;;;;;;;23.32;67.99;100690.63;5055702;28;1576;-42
2021/07/15 00:13:07;;;;;;;;;;;;;;;23.13;67.92;100675.56;5054981;28;1724;-41
2021/07/15 00:15:35;;;;;;;;;;;;;;;23.10;68.14;100692.09;5056019;28;1530;-41
2021/07/15 00:18:02;;;;;;;;;;;;;;;23.01;68.07;100677.69;5055253;28;1936;-41
2021/07/15 00:20:29;;;;;;;;;;;;;;;23.17;67.61;100671.50;5056151;28;1980;-41
2021/07/15 00:22:56;;;;;;;;;;;;;;;23.21;67.61;100682.81;5054867;28;1786;-42
2021/07/15 00:25:23;;;;;;;;;;;;;;;23.23;67.54;100681.66;5056012;28;1898;-41
2021/07/15 00:27:49;;;;;;;;;;;;;;;23.15;67.51;100686.19;5055552;28;1655;-41
2021/07/15 00:30:16;;;;;;;;;;;;;;;23.03;67.91;100689.19;5054708;28;1579;-40
2021/07/15 00:32:43;;;;;;;;;;;;;;;22.98;67.80;100680.72;5055326;28;1732;-41
2021/07/15 00:35:10;;;;;;;;;;;;;;;23.00;67.46;100683.25;5055056;28;1573;-41
2021/07/15 00:37:38;;;;;;;;;;;;;;;23.11;67.16;100679.44;5055205;28;1766;-41
2021/07/15 00:40:06;;;;;;;;;;;;;;;23.30;66.63;100673.75;5055752;28;1820;-41
2021/07/15 00:42:33;;;;;;;;;;;;;;;23.41;66.33;100672.56;5047428;28;1943;-41
2021/07/15 00:44:59;;;;;;;;;;;;;;;23.22;67.04;100681.84;5055288;28;1973;-41
2021/07/15 00:47:26;;;;;;;;;;;;;;;23.09;67.24;100685.00;5055090;28;2050;-42
2021/07/15 00:49:52;;;;;;;;;;;;;;;23.18;66.61;100678.63;5054713;28;1590;-41
2021/07/15 00:52:19;;;;;;;;;;;;;;;23.06;67.11;100679.94;5055328;28;1537;-41
2021/07/15 00:54:47;;;;;;;;;;;;;;;23.12;66.72;100676.59;5055344;28;1702;-41
2021/07/15 00:57:13;;;;;;;;;;;;;;;23.32;66.12;100669.03;5055366;28;1890;-41
2021/07/15 00:59:39;;;;;;;;;;;;;;;23.39;66.06;100664.63;5054899;28;1801;-41
2021/07/15 01:02:06;;;;;;;;;;;;;;;23.50;65.93;100676.13;5054556;28;1692;-41
2021/07/15 01:04:33;;;;;;;;;;;;;;;23.54;65.65;100672.94;5054754;28;1902;-42
2021/07/15 01:06:59;;;;;;;;;;;;;;;23.29;66.09;100653.16;5055129;28;1711;-42
2021/07/15 01:09:26;;;;;;;;;;;;;;;23.07;66.83;100670.81;5054640;28;1600;-41
2021/07/15 01:11:58;;;;;;;;;;;;;;;23.11;66.75;100676.75;5054688;28;1548;-42
2021/07/15 01:14:27;;;;;;;;;;;;;;;23.17;66.24;100670.69;5055262;28;1558;-41
2021/07/15 01:16:56;;;;;;;;;;;;;;;23.09;65.96;100670.66;5055154;28;1798;-41
2021/07/15 01:19:37;;;;;;;;;;;;;;;22.95;66.50;100664.84;5054470;28;1927;-41
2021/07/15 01:22:07;;;;;;;;;;;;;;;23.11;65.97;100660.56;5054479;28;1953;-42
2021/07/15 01:24:44;;;;;;;;;;;;;;;22.91;66.58;100650.00;5054083;28;1906;-41
2021/07/15 01:27:30;;;;;;;;;;;;;;;22.75;66.81;100645.41;5054389;28;1556;-41
2021/07/15 01:30:04;;;;;;;;;;;;;;;22.72;66.80;100663.75;5054398;28;1561;-42
2021/07/15 01:32:31;;;;;;;;;;;;;;;22.74;66.43;100673.41;5047952;28;1626;-41
2021/07/15 01:35:01;;;;;;;;;;;;;;;22.91;66.07;100660.81;5054726;28;1554;-42
2021/07/15 01:37:28;;;;;;;;;;;;;;;23.14;65.65;100652.97;5053941;28;1707;-41
2021/07/15 01:39:55;;;;;;;;;;;;;;;23.27;65.54;100660.56;5054349;28;1727;-41
2021/07/15 01:42:22;;;;;;;;;;;;;;;23.27;65.18;100649.78;5054215;28;1602;-41
2021/07/15 01:44:49;;;;;;;;;;;;;;;23.23;65.53;100648.44;5054262;28;1902;-41
2021/07/15 01:47:17;;;;;;;;;;;;;;;23.21;65.67;100645.91;5054353;28;1860;-41
2021/07/15 01:49:43;;;;;;;;;;;;;;;23.02;66.05;100663.25;5054337;28;1979;-41
2021/07/15 01:52:10;;;;;;;;;;;;;;;22.82;66.22;100651.84;5054002;28;1889;-42
2021/07/15 01:54:37;;;;;;;;;;;;;;;22.79;66.40;100651.34;5054173;28;1804;-41
2021/07/15 01:57:06;;;;;;;;;;;;;;;22.69;66.69;100647.94;5054071;28;1478;-41
2021/07/15 01:59:33;;;;;;;;;;;;;;;22.61;66.77;100651.44;5053530;28;2048;-41
2021/07/15 02:02:01;;;;;;;;;;;;;;;22.55;66.82;100641.31;5157790;22;3703;-42
2021/07/15 02:04:30;;;;;;;;;;;;;;;22.50;66.82;100657.97;5014744;28;1766;-42
2021/07/15 02:06:58;;;;;;;;;;;;;;;22.50;67.06;100660.66;5013963;28;1981;-42
2021/07/15 02:09:25;;;;;;;;;;;;;;;22.49;66.86;100656.25;5014236;28;1719;-43
2021/07/15 02:11:52;;;;;;;;;;;;;;;22.48;66.93;100664.50;5013776;28;1067;-42
2021/07/15 02:14:21;;;;;;;;;;;;;;;22.52;66.85;100666.72;5013965;28;1657;-43
2021/07/15 02:16:49;;;;;;;;;;;;;;;22.57;66.68;100655.47;5014037;28;1095;-42
2021/07/15 02:19:16;;;;;;;;;;;;;;;22.69;66.50;100662.25;5013615;28;1670;-42
2021/07/15 02:21:45;;;;;;;;;;;;;;;22.75;66.19;100653.50;5013498;28;1655;-42
2021/07/15 02:24:13;;;;;;;;;;;;;;;22.76;65.92;100663.28;5013189;28;1733;-42
2021/07/15 02:26:40;;;;;;;;;;;;;;;22.83;65.95;100658.09;5013827;28;1906;-43
2021/07/15 02:29:06;;;;;;;;;;;;;;;22.87;65.87;100658.59;5014176;28;1012;-42
2021/07/15 02:31:35;;;;;;;;;;;;;;;22.90;65.79;100660.97;5013928;28;1094;-43
2021/07/15 02:34:03;;;;;;;;;;;;;;;22.97;65.71;100660.16;5013788;28;1557;-43
2021/07/15 02:36:31;;;;;;;;;;;;;;;22.91;65.53;100660.81;5013374;28;1646;-43
2021/07/15 02:39:00;;;;;;;;;;;;;;;22.78;65.63;100660.41;5013324;28;1757;-42
2021/07/15 02:41:26;;;;;;;;;;;;;;;22.64;66.15;100659.19;5013020;28;1659;-42
2021/07/15 02:43:53;;;;;;;;;;;;;;;22.57;66.15;100659.00;5013716;28;999;-42
2021/07/15 02:46:19;;;;;;;;;;;;;;;22.57;65.99;100650.06;5013698;28;1906;-42
2021/07/15 02:48:46;;;;;;;;;;;;;;;22.50;65.92;100657.97;5013464;28;1651;-43
2021/07/15 02:51:12;;;;;;;;;;;;;;;22.44;66.20;100658.59;5013545;28;1764;-42
2021/07/15 02:53:39;;;;;;;;;;;;;;;22.57;66.16;100660.84;5013189;28;1072;-43
2021/07/15 02:56:11;;;;;;;;;;;;;;;22.56;65.63;100660.00;5013014;28;1761;-42
2021/07/15 02:58:41;;;;;;;;;;;;;;;22.68;65.49;100676.75;5013679;28;1066;-43
2021/07/15 03:01:11;;;;;;;;;;;;;;;22.57;65.75;100664.38;5013388;28;1277;-43
2021/07/15 03:03:42;;;;;;;;;;;;;;;22.49;65.96;100672.44;5013426;28;1678;-42
2021/07/15 03:06:10;;;;;;;;;;;;;;;22.39;66.33;100660.94;5012973;28;1975;-42
2021/07/15 03:08:40;;;;;;;;;;;;;;;22.39;66.49;100679.78;5013376;28;1273;-42
2021/07/15 03:11:08;;;;;;;;;;;;;;;22.31;66.76;100671.66;5013013;28;1639;-42
2021/07/15 03:13:36;;;;;;;;;;;;;;;22.33;66.58;100677.75;5013364;28;1714;-42
2021/07/15 03:16:03;;;;;;;;;;;;;;;22.42;66.10;100677.63;5012671;28;1614;-42
2021/07/15 03:18:30;;;;;;;;;;;;;;;22.41;65.91;100677.78;5013387;28;1672;-42
2021/07/15 03:20:57;;;;;;;;;;;;;;;22.38;66.01;100684.34;5012860;28;1665;-42
2021/07/15 03:23:25;;;;;;;;;;;;;;;22.38;65.93;100667.31;5013247;28;1725;-43
2021/07/15 03:25:53;;;;;;;;;;;;;;;22.43;65.93;100659.59;5013088;28;1977;-42
2021/07/15 03:28:21;;;;;;;;;;;;;;;22.47;65.73;100662.81;5012955;28;1652;-43
2021/07/15 03:30:50;;;;;;;;;;;;;;;22.44;65.82;100655.88;5013411;28;1493;-42
2021/07/15 03:33:17;;;;;;;;;;;;;;;22.48;65.57;100665.34;5012514;28;1641;-42
2021/07/15 03:35:43;;;;;;;;;;;;;;;22.52;65.24;100653.25;5015606;28;1650;-43
2021/07/15 03:38:10;;;;;;;;;;;;;;;22.46;65.37;100651.19;5016970;28;1692;-43
2021/07/15 03:40:37;;;;;;;;;;;;;;;22.56;65.64;100657.31;5016575;28;1739;-42
2021/07/15 03:43:04;;;;;;;;;;;;;;;22.51;65.37;100653.41;5016556;28;1675;-43
2021/07/15 03:45:30;;;;;;;;;;;;;;;22.62;65.43;100663.88;5016710;28;1906;-42
2021/07/15 03:47:59;;;;;;;;;;;;;;;22.59;65.38;100658.84;5015932;28;1702;-43
2021/07/15 03:50:26;;;;;;;;;;;;;;;22.52;65.76;100668.56;5016996;28;1556;-42
2021/07/15 03:52:53;;;;;;;;;;;;;;;22.67;65.58;100674.22;5016602;28;1542;-42
2021/07/15 03:55:22;;;;;;;;;;;;;;;22.77;64.76;100656.03;5016798;28;1093;-42
2021/07/15 03:57:49;;;;;;;;;;;;;;;22.75;65.11;100660.75;5016263;28;1758;-43
2021/07/15 04:00:17;;;;;;;;;;;;;;;22.86;64.89;100668.56;4997308;28;1007;-42
2021/07/15 04:02:43;;;;;;;;;;;;;;;22.96;64.46;100676.47;4997032;28;1321;-42
2021/07/15 04:05:13;;;;;;;;;;;;;;;22.99;64.38;100668.06;5014435;28;1732;-43
2021/07/15 04:07:40;;;;;;;;;;;;;;;23.21;64.12;100682.81;5016904;28;1938;-42
2021/07/15 04:10:07;;;;;;;;;;;;;;;23.12;63.80;100667.63;5016656;28;1006;-42
2021/07/15 04:12:35;;;;;;;;;;;;;;;23.28;64.48;100664.13;5016286;28;1679;-43
2021/07/15 04:15:06;;;;;;;;;;;;;;;23.47;63.54;100666.50;4996696;28;1064;-42
2021/07/15 04:17:34;;;;;;;;;;;;;;;23.33;63.99;100670.69;5012661;28;1663;-42
2021/07/15 04:20:03;;;;;;;;;;;;;;;23.44;64.78;100677.66;5016303;28;1631;-42
2021/07/15 04:22:32;;;;;;;;;;;;;;;23.56;63.11;100680.88;5016207;28;1099;-43
2021/07/15 04:24:59;;;;;;;;;;;;;;;23.75;63.52;100660.78;5016541;28;1194;-43
2021/07/15 04:27:27;;;;;;;;;;;;;;;23.78;63.29;100658.63;5015814;28;1973;-43
2021/07/15 04:29:59;;;;;;;;;;;;;;;23.91;63.95;100646.44;5016814;28;1549;-42
2021/07/15 04:32:27;;;;;;;;;;;;;;;23.99;64.13;100649.13;5022237;28;1698;-43
2021/07/15 04:34:54;;;;;;;;;;;;;;;24.12;63.86;100660.25;5015858;28;1727;-42
2021/07/15 04:37:21;;;;;;;;;;;;;;;24.12;63.35;100660.25;5016141;28;1097;-42
2021/07/15 04:39:49;;;;;;;;;;;;;;;24.12;62.02;100652.16;5015325;28;1741;-43
2021/07/15 04:42:16;;;;;;;;;;;;;;;24.06;62.93;100652.00;5016111;28;1107;-43
2021/07/15 04:44:45;;;;;;;;;;;;;;;24.21;62.88;100661.06;5018373;28;1745;-42
2021/07/15 04:47:13;;;;;;;;;;;;;;;24.36;64.13;100653.94;5020879;28;1902;-42
2021/07/15 04:49:39;;;;;;;;;;;;;;;24.51;63.50;100659.53;5015766;28;1008;-43
2021/07/15 04:52:08;;;;;;;;;;;;;;;24.60;64.18;100658.44;5016454;28;1078;-42
2021/07/15 04:54:34;;;;;;;;;;;;;;;24.56;63.60;100664.38;5015422;28;1741;-42
2021/07/15 04:57:02;;;;;;;;;;;;;;;24.61;62.75;100643.94;5015635;28;1782;-42
2021/07/15 04:59:30;;;;;;;;;;;;;;;24.59;66.32;100643.25;5014560;28;1723;-42
2021/07/15 05:01:57;;;;;;;;;;;;;;;24.59;67.47;100656.78;5017261;28;1406;-42
2021/07/15 05:04:24;;;;;;;;;;;;;;;24.58;66.68;100643.44;5016465;28;1293;-43
2021/07/15 05:06:51;;;;;;;;;;;;;;;24.57;67.57;100637.19;5013559;28;1981;-43
2021/07/15 05:09:17;;;;;;;;;;;;;;;24.57;67.15;100666.06;5013636;28;1824;-43
2021/07/15 05:11:44;;;;;;;;;;;;;;;24.55;67.38;100654.56;5015628;28;1982;-42
2021/07/15 05:14:11;;;;;;;;;;;;;;;24.59;67.09;100658.63;5015675;28;1892;-42
2021/07/15 05:16:38;;;;;;;;;;;;;;;24.54;67.61;100648.34;5014708;28;1829;-43
2021/07/15 05:19:04;;;;;;;;;;;;;;;24.58;67.61;100652.38;5015148;28;1578;-42
2021/07/15 05:21:31;;;;;;;;;;;;;;;24.54;67.34;100626.72;5015205;28;1887;-42
2021/07/15 05:23:57;;;;;;;;;;;;;;;24.57;66.92;100631.78;5023813;28;1602;-42
2021/07/15 05:26:24;;;;;;;;;;;;;;;24.55;66.84;100641.94;5020867;28;1973;-42
2021/07/15 05:28:51;;;;;;;;;;;;;;;24.58;67.54;100654.25;5015142;28;1531;-42
2021/07/15 05:31:21;;;;;;;;;;;;;;;24.60;67.12;100642.22;5015304;28;1891;-42
2021/07/15 05:33:47;;;;;;;;;;;;;;;24.54;66.98;100636.69;5015486;28;1987;-42
2021/07/15 05:36:14;;;;;;;;;;;;;;;24.57;66.53;100637.19;5014914;28;1899;-42
2021/07/15 05:38:42;;;;;;;;;;;;;;;24.62;67.44;100652.88;5015385;28;1913;-42
2021/07/15 05:41:09;;;;;;;;;;;;;;;24.58;67.24;100649.66;5022550;28;1842;-42
2021/07/15 05:43:36;;;;;;;;;;;;;;;24.60;66.55;100642.22;5021631;28;1633;-42
2021/07/15 05:46:03;;;;;;;;;;;;;;;24.62;66.66;100644.75;5031729;28;1976;-42
2021/07/15 05:48:31;;;;;;;;;;;;;;;24.60;66.75;100636.81;5025767;28;2061;-42
2021/07/15 05:50:57;;;;;;;;;;;;;;;24.60;66.97;100649.50;5016839;28;1615;-42
2021/07/15 05:53:23;;;;;;;;;;;;;;;24.58;66.49;100633.44;5015037;28;1568;-42
2021/07/15 05:55:50;;;;;;;;;;;;;;;24.61;66.95;100638.53;5014582;28;1879;-42
2021/07/15 05:58:17;;;;;;;;;;;;;;;24.68;66.36;100646.75;5014102;28;1626;-42
2021/07/15 06:00:43;;;;;;;;;;;;;;;24.66;66.31;100640.69;5014853;28;1569;-42
2021/07/15 06:03:09;;;;;;;;;;;;;;;24.65;66.68;100632.75;5015259;28;1672;-43
2021/07/15 06:05:37;;;;;;;;;;;;;;;24.68;66.01;100632.41;5014569;28;2084;-42
2021/07/15 06:08:04;;;;;;;;;;;;;;;24.69;66.61;100644.88;5022049;28;1997;-42
2021/07/15 06:10:31;;;;;;;;;;;;;;;24.70;66.81;100616.84;5014943;28;1929;-42
2021/07/15 06:12:59;;;;;;;;;;;;;;;24.75;66.89;100633.38;5014624;28;1524;-43
2021/07/15 06:15:25;;;;;;;;;;;;;;;24.71;65.97;100629.34;5014624;28;1531;-42
2021/07/15 06:17:52;;;;;;;;;;;;;;;24.72;66.18;100636.44;5021784;28;1905;-42
2021/07/15 06:20:18;;;;;;;;;;;;;;;24.77;66.46;100634.03;5015149;28;1821;-42
2021/07/15 06:22:47;;;;;;;;;;;;;;;24.75;66.79;100628.81;5014380;28;1569;-42
2021/07/15 06:25:13;;;;;;;;;;;;;;;24.77;66.33;100620.50;5016196;28;1887;-42
2021/07/15 06:27:41;;;;;;;;;;;;;;;24.80;65.83;100630.97;5033738;28;2103;-42
2021/07/15 06:30:08;;;;;;;;;;;;;;;24.79;65.76;100623.91;5016114;28;1539;-43
2021/07/15 06:32:34;;;;;;;;;;;;;;;24.80;66.23;100620.16;5014240;28;1623;-42
2021/07/15 06:35:01;;;;;;;;;;;;;;;24.81;66.17;100627.28;5014052;28;1748;-43
2021/07/15 06:37:32;;;;;;;;;;;;;;;24.84;66.81;100621.50;5014193;28;1891;-42
2021/07/15 06:40:00;;;;;;;;;;;;;;;24.84;65.89;100626.91;5013800;28;1529;-42
2021/07/15 06:42:27;;;;;;;;;;;;;;;24.81;66.85;100605.63;5005977;28;1854;-42
2021/07/15 06:44:53;;;;;;;;;;;;;;;24.83;66.83;100606.31;5020873;28;1913;-42
2021/07/15 06:47:20;;;;;;;;;;;;;;;24.84;66.32;100618.78;5014732;28;1973;-42
2021/07/15 06:49:46;;;;;;;;;;;;;;;24.81;66.91;100616.47;5014065;28;1631;-42
2021/07/15 06:52:13;;;;;;;;;;;;;;;24.85;66.47;100596.16;5014234;28;1913;-42
2021/07/15 06:54:39;;;;;;;;;;;;;;;24.83;66.38;100614.41;5013798;28;1739;-42
2021/07/15 06:57:07;;;;;;;;;;;;;;;24.87;65.91;100598.66;5014208;28;2051;-43
2021/07/15 06:59:34;;;;;;;;;;;;;;;24.84;66.88;100586.34;5013781;28;1903;-42
2021/07/15 07:02:00;;;;;;;;;;;;;;;24.83;67.15;100589.22;5013603;28;2042;-42
2021/07/15 07:04:27;;;;;;;;;;;;;;;24.82;66.71;100604.59;5023489;28;1679;-42
2021/07/15 07:06:53;;;;;;;;;;;;;;;24.84;66.19;100615.25;5027037;28;1906;-42
2021/07/15 07:09:20;;;;;;;;;;;;;;;24.84;66.93;100602.56;5013588;28;1901;-42
2021/07/15 07:11:46;;;;;;;;;;;;;;;24.84;67.08;100604.44;5014346;28;1921;-42
2021/07/15 07:14:14;;;;;;;;;;;;;;;24.86;66.33;100619.44;5013764;28;1990;-42
2021/07/15 07:16:40;;;;;;;;;;;;;;;24.85;66.50;100623.19;5013508;28;1884;-42
2021/07/15 07:19:07;;;;;;;;;;;;;;;24.83;66.99;100622.53;5013938;28;1577;-40
2021/07/15 07:21:33;;;;;;;;;;;;;;;24.85;66.26;100606.97;5013868;28;2078;-40
2021/07/15 07:24:00;;;;;;;;;;;;;;;24.87;66.57;100604.94;5027405;28;1537;-39
2021/07/15 07:26:27;;;;;;;;;;;;;;;24.84;67.03;100596.31;5015013;28;1906;-40
2021/07/15 07:28:53;;;;;;;;;;;;;;;24.88;66.93;100611.16;5013668;28;1606;-40
2021/07/15 07:31:21;;;;;;;;;;;;;;;24.90;67.18;100609.97;5013780;28;1866;-40
2021/07/15 07:33:47;;;;;;;;;;;;;;;24.90;66.96;100614.53;5013743;28;1577;-40
2021/07/15 07:36:14;;;;;;;;;;;;;;;24.87;66.50;100590.53;5013711;28;1902;-40
2021/07/15 07:38:40;;;;;;;;;;;;;;;24.90;66.41;100593.72;5013401;28;1592;-40
2021/07/15 07:41:07;;;;;;;;;;;;;;;24.89;66.17;100604.72;5014533;28;1908;-39
2021/07/15 07:43:33;;;;;;;;;;;;;;;24.90;66.01;100592.91;5028485;28;1612;-40
2021/07/15 07:46:01;;;;;;;;;;;;;;;24.91;66.61;100606.25;5013399;28;2104;-40
2021/07/15 07:48:28;;;;;;;;;;;;;;;24.90;66.43;100603.72;5013266;28;1971;-40
2021/07/15 07:50:58;;;;;;;;;;;;;;;24.86;66.29;100607.81;5014115;28;1550;-39
2021/07/15 07:53:24;;;;;;;;;;;;;;;24.92;66.73;100618.75;5013544;28;1915;-40
2021/07/15 07:55:51;;;;;;;;;;;;;;;24.88;66.96;100606.59;5013374;28;1888;-40
2021/07/15 07:58:17;;;;;;;;;;;;;;;24.90;67.16;100614.53;5013619;28;1910;-40
2021/07/15 08:00:43;;;;;;;;;;;;;;;24.87;66.78;100610.34;5019580;28;1910;-40
2021/07/15 08:03:10;;;;;;;;;;;;;;;24.89;66.54;100602.88;5032724;28;1920;-40
2021/07/15 08:05:40;;;;;;;;;;;;;;;24.87;67.10;100610.34;5023073;28;1979;-40
2021/07/15 08:08:07;;;;;;;;;;;;;;;24.89;66.46;100611.00;5013039;28;2012;-40
2021/07/15 08:10:34;;;;;;;;;;;;;;;24.87;66.25;100610.34;5020457;28;1545;-40
2021/07/15 08:13:00;;;;;;;;;;;;;;;24.90;67.08;100620.78;5005175;28;1671;-40
2021/07/15 08:15:27;;;;;;;;;;;;;;;24.87;67.31;100593.25;5013542;28;1865;-39
2021/07/15 08:17:53;;;;;;;;;;;;;;;24.88;67.04;100611.16;5013053;28;1601;-39
2021/07/15 08:20:20;;;;;;;;;;;;;;;24.90;67.22;100611.84;5020966;28;1912;-40
2021/07/15 08:22:48;;;;;;;;;;;;;;;24.90;66.28;100620.78;5015943;28;1875;-41
2021/07/15 08:25:14;;;;;;;;;;;;;;;24.88;66.61;100606.59;5016495;28;1576;-40
2021/07/15 08:27:41;;;;;;;;;;;;;;;24.86;67.08;100602.38;5016405;28;1902;-40
2021/07/15 08:30:09;;;;;;;;;;;;;;;24.93;67.27;100609.63;5017044;28;1736;-40
2021/07/15 08:32:35;;;;;;;;;;;;;;;24.91;66.43;100608.09;5016652;28;1915;-40
2021/07/15 08:35:02;;;;;;;;;;;;;;;24.91;66.28;100602.69;5023148;28;1901;-40
2021/07/15 08:37:28;;;;;;;;;;;;;;;24.92;67.27;100607.91;5016460;28;1934;-40
2021/07/15 08:39:56;;;;;;;;;;;;;;;24.89;66.59;100592.06;5023855;28;1629;-40
2021/07/15 08:42:23;;;;;;;;;;;;;;;24.91;66.69;100595.44;5015940;28;1523;-40
2021/07/15 08:44:49;;;;;;;;;;;;;;;24.94;67.24;100605.03;5016197;28;1620;-40
2021/07/15 08:47:16;;;;;;;;;;;;;;;24.92;66.51;100599.81;5015666;28;1979;-40
2021/07/15 08:49:43;;;;;;;;;;;;;;;24.88;66.55;100590.38;5016743;28;1802;-40
2021/07/15 08:52:09;;;;;;;;;;;;;;;24.90;67.28;100596.44;5016243;28;1913;-40
2021/07/15 08:54:50;;;;;;;;;;;;;;;24.91;67.27;100599.97;5026097;28;1595;-40
2021/07/15 08:57:16;;;;;;;;;;;;;;;24.88;66.78;100594.94;5019258;28;1527;-42
2021/07/15 08:59:43;;;;;;;;;;;;;;;24.91;67.26;100598.13;5016668;28;1900;-43
2021/07/15 09:02:12;;;;;;;;;;;;;;;24.91;66.26;100606.25;5015488;28;1971;-42
2021/07/15 09:04:38;;;;;;;;;;;;;;;24.89;66.52;100608.28;5015692;28;1604;-42
2021/07/15 09:07:05;;;;;;;;;;;;;;;24.86;66.91;100580.75;5015379;28;1978;-42
2021/07/15 09:09:31;;;;;;;;;;;;;;;24.90;66.71;100609.97;5017215;28;1804;-43
2021/07/15 09:11:58;;;;;;;;;;;;;;;24.88;66.65;100593.06;5007605;28;1843;-42
2021/07/15 09:14:26;;;;;;;;;;;;;;;24.88;67.24;100582.25;5029978;28;1908;-40
2021/07/15 09:16:54;;;;;;;;;;;;;;;24.87;66.39;100577.88;5017672;28;1629;-40
2021/07/15 09:19:21;;;;;;;;;;;;;;;24.90;66.56;100588.31;5016470;28;2185;-42
2021/07/15 09:21:48;;;;;;;;;;;;;;;24.89;67.19;100583.94;5015751;28;1875;-43
2021/07/15 09:24:28;;;;;;;;;;;;;;;24.89;67.43;100570.41;5015490;28;1892;-42
2021/07/15 09:26:55;;;;;;;;;;;;;;;24.92;66.68;100580.88;5015300;28;1977;-43
2021/07/15 09:29:22;;;;;;;;;;;;;;;24.93;66.77;100577.16;5026788;28;1591;-42
2021/07/15 09:31:53;;;;;;;;;;;;;;;24.88;67.30;100560.59;5018850;28;1908;-42
2021/07/15 09:34:20;;;;;;;;;;;;;;;24.90;67.35;100561.28;5015088;28;1859;-42
2021/07/15 09:36:47;;;;;;;;;;;;;;;24.91;66.48;100562.09;5015427;28;1974;-42
2021/07/15 09:39:18;;;;;;;;;;;;;;;24.90;67.36;100555.84;5016435;28;1964;-42
2021/07/15 09:42:05;;;;;;;;;;;;;;;24.88;66.78;100557.91;5015345;28;1833;-42
2021/07/15 09:44:31;;;;;;;;;;;;;;;24.92;67.30;100551.13;5022853;28;1728;-42
2021/07/15 09:46:59;;;;;;;;;;;;;;;24.90;67.32;100541.50;5016292;28;1598;-42
2021/07/15 09:49:30;;;;;;;;;;;;;;;24.89;67.03;100556.91;5015789;28;1907;-42
2021/07/15 09:51:58;;;;;;;;;;;;;;;24.89;66.77;100548.78;5015008;28;1794;-42
2021/07/15 09:54:24;;;;;;;;;;;;;;;24.92;67.43;100543.00;5015013;28;1984;-42
2021/07/15 09:56:51;;;;;;;;;;;;;;;24.89;66.58;100551.50;5014719;28;1905;-42
2021/07/15 09:59:17;;;;;;;;;;;;;;;24.88;67.58;100551.66;5016078;28;1799;-42
2021/07/15 10:01:45;;;;;;;;;;;;;;;24.90;66.55;100544.22;5014250;28;1854;-42
2021/07/15 10:04:13;;;;;;;;;;;;;;;24.90;67.13;100539.63;5015063;28;1851;-42
2021/07/15 10:06:43;;;;;;;;;;;;;;;24.88;66.55;100538.97;5014348;28;1523;-42
2021/07/15 10:09:19;;;;;;;;;;;;;;;24.91;67.51;100527.81;5023090;28;1918;-42
2021/07/15 10:11:45;;;;;;;;;;;;;;;24.89;66.70;100542.50;5014617;28;1863;-42
2021/07/15 10:14:13;;;;;;;;;;;;;;;24.92;67.62;100537.59;5014515;28;1581;-42
2021/07/15 10:16:40;;;;;;;;;;;;;;;24.90;67.36;100531.53;5014270;28;1535;-43
2021/07/15 10:19:07;;;;;;;;;;;;;;;24.92;66.74;100536.75;5007334;28;1857;-42
2021/07/15 10:21:36;;;;;;;;;;;;;;;24.88;67.69;100524.63;5014447;28;1548;-42
2021/07/15 10:24:14;;;;;;;;;;;;;;;24.87;66.86;100521.06;5014592;28;1961;-43
2021/07/15 10:26:42;;;;;;;;;;;;;;;24.91;67.33;100537.75;5014380;28;1615;-42
2021/07/15 10:29:09;;;;;;;;;;;;;;;24.90;67.16;100528.81;5022340;28;1906;-43
2021/07/15 10:31:35;;;;;;;;;;;;;;;24.88;66.91;100519.22;5014107;28;1883;-42
2021/07/15 10:34:02;;;;;;;;;;;;;;;24.92;66.63;100513.25;5013954;28;1884;-43
2021/07/15 10:36:29;;;;;;;;;;;;;;;24.88;67.71;100517.34;5014225;28;1965;-42
2021/07/15 10:38:57;;;;;;;;;;;;;;;24.91;67.21;100525.09;5014386;28;1554;-42
2021/07/15 10:41:24;;;;;;;;;;;;;;;24.88;66.89;100509.22;5015100;28;1655;-42
2021/07/15 10:43:50;;;;;;;;;;;;;;;24.88;67.41;100517.34;5013474;28;1590;-42
2021/07/15 10:46:17;;;;;;;;;;;;;;;24.93;66.67;100512.22;5014479;28;1884;-42
2021/07/15 10:48:46;;;;;;;;;;;;;;;24.89;67.52;100510.91;5028538;28;1906;-39
2021/07/15 10:51:13;;;;;;;;;;;;;;;24.89;66.92;100499.22;5014796;28;1571;-40
2021/07/15 10:53:40;;;;;;;;;;;;;;;24.91;66.74;100503.47;5013864;28;1575;-41
2021/07/15 10:56:09;;;;;;;;;;;;;;;24.89;66.90;100505.50;5013929;28;1636;-42
2021/07/15 10:58:43;;;;;;;;;;;;;;;24.90;66.69;100501.75;5016670;28;1620;-42
2021/07/15 11:01:09;;;;;;;;;;;;;;;24.89;67.33;100500.09;5023340;28;1578;-43
2021/07/15 11:03:36;;;;;;;;;;;;;;;24.89;66.86;100500.09;5017718;28;1560;-42
2021/07/15 11:06:03;;;;;;;;;;;;;;;24.93;67.27;100495.13;5019525;28;1594;-42
2021/07/15 11:08:48;;;;;;;;;;;;;;;24.89;67.17;100483.88;5014766;28;1973;-42
2021/07/15 11:11:16;;;;;;;;;;;;;;;24.91;66.79;100494.47;5014637;28;1877;-42
2021/07/15 11:13:43;;;;;;;;;;;;;;;24.94;66.94;100503.09;5029405;28;1951;-42
2021/07/15 11:16:10;;;;;;;;;;;;;;;24.93;67.47;100495.13;5013680;28;1547;-42
2021/07/15 11:18:48;;;;;;;;;;;;;;;24.92;67.63;100488.91;5014874;28;1795;-42
2021/07/15 11:21:31;;;;;;;;;;;;;;;24.91;67.21;100487.22;5014046;28;1974;-42
2021/07/15 11:24:12;;;;;;;;;;;;;;;24.91;67.12;100491.78;5007140;28;1931;-42
2021/07/15 11:26:41;;;;;;;;;;;;;;;24.91;67.16;100498.06;5031037;28;1744;-42
2021/07/15 11:29:08;;;;;;;;;;;;;;;24.91;67.08;100492.63;5020273;28;1989;-42
2021/07/15 11:31:40;;;;;;;;;;;;;;;24.91;66.96;100481.81;5013439;28;1842;-42
2021/07/15 11:34:07;;;;;;;;;;;;;;;24.90;67.11;100482.81;5013175;28;1508;-42
2021/07/15 11:36:34;;;;;;;;;;;;;;;24.93;66.95;100489.72;5013677;28;1573;-42
2021/07/15 11:39:03;;;;;;;;;;;;;;;24.92;66.93;100483.50;5014435;28;1616;-42
2021/07/15 11:41:45;;;;;;;;;;;;;;;24.93;66.89;100487.03;5013333;28;2148;-42
2021/07/15 11:44:13;;;;;;;;;;;;;;;24.92;67.56;100479.94;5018006;28;1901;-42
2021/07/15 11:46:40;;;;;;;;;;;;;;;24.93;67.40;100478.91;5023545;28;1882;-43
2021/07/15 11:49:22;;;;;;;;;;;;;;;24.91;66.99;100473.72;5014603;28;1910;-42
2021/07/15 11:52:00;;;;;;;;;;;;;;;24.94;67.10;100457.09;5013003;28;1818;-43
2021/07/15 11:54:33;;;;;;;;;;;;;;;24.93;66.96;100468.09;5013162;28;1553;-42
2021/07/15 11:57:02;;;;;;;;;;;;;;;24.96;67.71;100463.16;5014453;28;1445;-42
2021/07/15 11:59:33;;;;;;;;;;;;;;;24.95;67.68;100479.59;5018111;28;1710;-42
2021/07/15 12:02:09;;;;;;;;;;;;;;;24.93;67.75;100465.38;5016518;28;1802;-43
2021/07/15 12:04:54;;;;;;;;;;;;;;;24.92;67.02;100483.50;5024544;28;1874;-42
2021/07/15 12:07:21;;;;;;;;;;;;;;;24.90;67.02;100463.91;5010664;28;1725;-42
2021/07/15 12:09:47;;;;;;;;;;;;;;;24.95;67.52;100464.19;5024086;28;1981;-43
2021/07/15 12:12:16;;;;;;;;;;;;;;;24.96;66.98;100463.16;5016651;28;1941;-42
2021/07/15 12:14:51;;;;;;;;;;;;;;;24.96;67.08;100457.75;5017127;28;1673;-42
2021/07/15 12:17:17;;;;;;;;;;;;;;;24.95;67.24;100453.38;5008970;28;1602;-44
2021/07/15 12:19:52;;;;;;;;;;;;;;;24.92;66.85;100451.03;5023944;28;1560;-42
2021/07/15 12:22:19;;;;;;;;;;;;;;;24.94;67.67;100454.38;5012411;28;1604;-42
2021/07/15 12:24:51;;;;;;;;;;;;;;;24.96;67.01;100446.94;5020980;28;1588;-42
2021/07/15 12:27:19;;;;;;;;;;;;;;;24.94;67.24;100448.97;5024375;28;1762;-42
2021/07/15 12:29:54;;;;;;;;;;;;;;;24.97;67.82;100455.91;5017703;28;1914;-42
2021/07/15 12:32:20;;;;;;;;;;;;;;;24.96;67.26;100446.94;5035559;28;1825;-42
2021/07/15 12:34:47;;;;;;;;;;;;;;;24.96;67.56;100451.50;5029639;28;1904;-42
2021/07/15 12:37:13;;;;;;;;;;;;;;;24.96;67.12;100443.41;5025880;28;1895;-43
2021/07/15 12:39:40;;;;;;;;;;;;;;;24.98;67.64;100447.59;5034136;28;1884;-42
2021/07/15 12:42:06;;;;;;;;;;;;;;;24.94;67.14;100432.75;5026756;28;1611;-43
2021/07/15 12:44:34;;;;;;;;;;;;;;;24.96;67.99;100446.09;5023621;28;1589;-42
2021/07/15 12:47:01;;;;;;;;;;;;;;;24.93;67.81;100439.19;5016355;28;1977;-42
2021/07/15 12:49:27;;;;;;;;;;;;;;;25.01;67.72;100449.13;5017249;28;1910;-42
2021/07/15 12:51:55;;;;;;;;;;;;;;;24.96;67.72;100441.53;5016227;28;2090;-42